sensor_id;sensor_type;location;lat;lon;timestamp;P1;durP1;ratioP1;P2;durP2;ratioP2
4278;SDS011;2153;47.744;10.580;2024-01-11T00:01:10;169.73;;;14.03;;
4278;SDS011;2153;47.744;10.580;2024-01-11T00:03:38;79.43;;;11.53;;
4278;SDS011;2153;47.744;10.580;2024-01-11T00:06:05;103.57;;;13.20;;
4278;SDS011;2153;47.744;10.580;2024-01-11T00:08:31;238.97;;;15.13;;
4278;SDS011;2153;47.744;10.580;2024-01-11T00:10:58;175.73;;;15.30;;
4278;SDS011;2153;47.744;10.580;2024-01-11T00:13:25;201.63;;;17.43;;
4278;SDS011;2153;47.744;10.580;2024-01-11T00:15:51;152.40;;;14.77;;
4278;SDS011;2153;47.744;10.580;2024-01-11T00:18:19;72.67;;;12.57;;
4278;SDS011;2153;47.744;10.580;2024-01-11T00:20:46;84.40;;;12.60;;
4278;SDS011;2153;47.744;10.580;2024-01-11T00:23:13;141.43;;;13.90;;
4278;SDS011;2153;47.744;10.580;2024-01-11T00:25:40;127.30;;;13.60;;
4278;SDS011;2153;47.744;10.580;2024-01-11T00:28:06;30.07;;;10.40;;
4278;SDS011;2153;47.744;10.580;2024-01-11T00:30:33;49.10;;;12.40;;
4278;SDS011;2153;47.744;10.580;2024-01-11T00:33:00;35.97;;;10.10;;
4278;SDS011;2153;47.744;10.580;2024-01-11T00:35:27;46.30;;;10.60;;
4278;SDS011;2153;47.744;10.580;2024-01-11T00:37:55;37.40;;;14.03;;
4278;SDS011;2153;47.744;10.580;2024-01-11T00:40:22;36.50;;;9.60;;
4278;SDS011;2153;47.744;10.580;2024-01-11T00:42:48;50.70;;;10.80;;
4278;SDS011;2153;47.744;10.580;2024-01-11T00:45:15;52.87;;;12.87;;
4278;SDS011;2153;47.744;10.580;2024-01-11T00:47:43;33.93;;;10.80;;
4278;SDS011;2153;47.744;10.580;2024-01-11T00:50:09;69.20;;;10.50;;
4278;SDS011;2153;47.744;10.580;2024-01-11T00:52:36;66.80;;;11.80;;
4278;SDS011;2153;47.744;10.580;2024-01-11T00:55:05;25.17;;;10.40;;
4278;SDS011;2153;47.744;10.580;2024-01-11T00:57:32;41.13;;;10.73;;
4278;SDS011;2153;47.744;10.580;2024-01-11T00:59:59;60.30;;;9.83;;
4278;SDS011;2153;47.744;10.580;2024-01-11T01:02:25;214.37;;;13.10;;
4278;SDS011;2153;47.744;10.580;2024-01-11T01:04:52;130.87;;;14.37;;
4278;SDS011;2153;47.744;10.580;2024-01-11T01:07:19;97.77;;;11.17;;
4278;SDS011;2153;47.744;10.580;2024-01-11T01:09:46;350.67;;;16.17;;
4278;SDS011;2153;47.744;10.580;2024-01-11T01:12:14;63.33;;;12.90;;
4278;SDS011;2153;47.744;10.580;2024-01-11T01:14:40;100.40;;;10.37;;
4278;SDS011;2153;47.744;10.580;2024-01-11T01:17:07;135.40;;;12.40;;
4278;SDS011;2153;47.744;10.580;2024-01-11T01:19:33;30.73;;;9.20;;
4278;SDS011;2153;47.744;10.580;2024-01-11T01:22:01;39.67;;;9.80;;
4278;SDS011;2153;47.744;10.580;2024-01-11T01:24:28;26.07;;;10.43;;
4278;SDS011;2153;47.744;10.580;2024-01-11T01:26:54;29.80;;;10.07;;
4278;SDS011;2153;47.744;10.580;2024-01-11T01:29:22;33.00;;;11.57;;
4278;SDS011;2153;47.744;10.580;2024-01-11T01:31:49;28.90;;;11.30;;
4278;SDS011;2153;47.744;10.580;2024-01-11T01:34:16;23.07;;;9.17;;
4278;SDS011;2153;47.744;10.580;2024-01-11T01:36:42;23.93;;;8.90;;
4278;SDS011;2153;47.744;10.580;2024-01-11T01:39:09;19.97;;;8.60;;
4278;SDS011;2153;47.744;10.580;2024-01-11T01:41:36;21.50;;;8.93;;
4278;SDS011;2153;47.744;10.580;2024-01-11T01:44:02;26.07;;;9.70;;
4278;SDS011;2153;47.744;10.580;2024-01-11T01:46:31;23.90;;;8.87;;
4278;SDS011;2153;47.744;10.580;2024-01-11T01:48:59;25.50;;;8.73;;
4278;SDS011;2153;47.744;10.580;2024-01-11T01:51:26;24.40;;;9.77;;
4278;SDS011;2153;47.744;10.580;2024-01-11T01:53:55;25.83;;;9.60;;
4278;SDS011;2153;47.744;10.580;2024-01-11T01:56:23;23.87;;;8.57;;
4278;SDS011;2153;47.744;10.580;2024-01-11T01:58:50;23.27;;;9.00;;
4278;SDS011;2153;47.744;10.580;2024-01-11T02:01:19;25.03;;;8.90;;
4278;SDS011;2153;47.744;10.580;2024-01-11T02:03:49;24.00;;;9.53;;
4278;SDS011;2153;47.744;10.580;2024-01-11T02:06:17;23.70;;;9.20;;
4278;SDS011;2153;47.744;10.580;2024-01-11T02:08:46;27.47;;;9.00;;
4278;SDS011;2153;47.744;10.580;2024-01-11T02:11:15;21.03;;;9.23;;
4278;SDS011;2153;47.744;10.580;2024-01-11T02:13:42;24.50;;;8.87;;
4278;SDS011;2153;47.744;10.580;2024-01-11T02:16:09;22.30;;;8.90;;
4278;SDS011;2153;47.744;10.580;2024-01-11T02:18:37;22.67;;;9.77;;
4278;SDS011;2153;47.744;10.580;2024-01-11T02:21:06;29.03;;;9.97;;
4278;SDS011;2153;47.744;10.580;2024-01-11T02:23:35;20.90;;;8.17;;
4278;SDS011;2153;47.744;10.580;2024-01-11T02:26:07;25.20;;;9.40;;
4278;SDS011;2153;47.744;10.580;2024-01-11T02:28:34;23.90;;;8.80;;
4278;SDS011;2153;47.744;10.580;2024-01-11T02:31:01;22.17;;;8.90;;
4278;SDS011;2153;47.744;10.580;2024-01-11T02:33:27;145.07;;;40.30;;
4278;SDS011;2153;47.744;10.580;2024-01-11T02:35:54;138.80;;;39.27;;
4278;SDS011;2153;47.744;10.580;2024-01-11T02:38:21;82.43;;;26.57;;
4278;SDS011;2153;47.744;10.580;2024-01-11T02:40:48;68.17;;;21.27;;
4278;SDS011;2153;47.744;10.580;2024-01-11T02:43:17;29.80;;;10.47;;
4278;SDS011;2153;47.744;10.580;2024-01-11T02:45:44;22.50;;;8.20;;
4278;SDS011;2153;47.744;10.580;2024-01-11T02:48:10;23.50;;;8.60;;
4278;SDS011;2153;47.744;10.580;2024-01-11T02:50:37;24.57;;;9.50;;
4278;SDS011;2153;47.744;10.580;2024-01-11T02:53:04;27.50;;;10.03;;
4278;SDS011;2153;47.744;10.580;2024-01-11T02:55:30;25.27;;;9.00;;
4278;SDS011;2153;47.744;10.580;2024-01-11T02:57:57;61.60;;;11.43;;
4278;SDS011;2153;47.744;10.580;2024-01-11T03:00:25;51.87;;;10.17;;
4278;SDS011;2153;47.744;10.580;2024-01-11T03:02:51;69.80;;;10.23;;
4278;SDS011;2153;47.744;10.580;2024-01-11T03:05:18;105.67;;;11.00;;
4278;SDS011;2153;47.744;10.580;2024-01-11T03:07:45;25.50;;;10.20;;
4278;SDS011;2153;47.744;10.580;2024-01-11T03:10:11;27.60;;;9.87;;
4278;SDS011;2153;47.744;10.580;2024-01-11T03:12:39;26.87;;;10.10;;
4278;SDS011;2153;47.744;10.580;2024-01-11T03:15:06;66.30;;;10.50;;
4278;SDS011;2153;47.744;10.580;2024-01-11T03:17:34;25.87;;;9.43;;
4278;SDS011;2153;47.744;10.580;2024-01-11T03:20:01;25.10;;;9.63;;
4278;SDS011;2153;47.744;10.580;2024-01-11T03:22:29;24.37;;;9.80;;
4278;SDS011;2153;47.744;10.580;2024-01-11T03:24:56;31.87;;;10.73;;
4278;SDS011;2153;47.744;10.580;2024-01-11T03:27:22;28.40;;;10.33;;
4278;SDS011;2153;47.744;10.580;2024-01-11T03:29:49;30.20;;;12.50;;
4278;SDS011;2153;47.744;10.580;2024-01-11T03:32:16;31.57;;;10.57;;
4278;SDS011;2153;47.744;10.580;2024-01-11T03:34:44;29.27;;;10.70;;
4278;SDS011;2153;47.744;10.580;2024-01-11T03:37:10;41.87;;;11.43;;
4278;SDS011;2153;47.744;10.580;2024-01-11T03:39:37;28.60;;;10.00;;
4278;SDS011;2153;47.744;10.580;2024-01-11T03:42:04;34.23;;;10.73;;
4278;SDS011;2153;47.744;10.580;2024-01-11T03:44:31;37.43;;;11.87;;
4278;SDS011;2153;47.744;10.580;2024-01-11T03:46:58;61.90;;;12.20;;
4278;SDS011;2153;47.744;10.580;2024-01-11T03:49:24;45.33;;;11.27;;
4278;SDS011;2153;47.744;10.580;2024-01-11T03:51:52;37.80;;;11.90;;
4278;SDS011;2153;47.744;10.580;2024-01-11T03:54:19;44.50;;;12.00;;
4278;SDS011;2153;47.744;10.580;2024-01-11T03:56:45;54.93;;;11.43;;
4278;SDS011;2153;47.744;10.580;2024-01-11T03:59:13;29.00;;;11.17;;
4278;SDS011;2153;47.744;10.580;2024-01-11T04:01:40;27.80;;;11.13;;
4278;SDS011;2153;47.744;10.580;2024-01-11T04:04:06;36.83;;;12.27;;
4278;SDS011;2153;47.744;10.580;2024-01-11T04:06:33;46.63;;;12.17;;
4278;SDS011;2153;47.744;10.580;2024-01-11T04:09:01;30.63;;;12.13;;
4278;SDS011;2153;47.744;10.580;2024-01-11T04:11:29;36.20;;;10.77;;
4278;SDS011;2153;47.744;10.580;2024-01-11T04:13:55;30.60;;;12.23;;
4278;SDS011;2153;47.744;10.580;2024-01-11T04:16:22;31.83;;;11.07;;
4278;SDS011;2153;47.744;10.580;2024-01-11T04:18:49;28.03;;;10.90;;
4278;SDS011;2153;47.744;10.580;2024-01-11T04:21:22;51.77;;;12.70;;
4278;SDS011;2153;47.744;10.580;2024-01-11T04:23:49;46.93;;;11.90;;
4278;SDS011;2153;47.744;10.580;2024-01-11T04:26:17;34.60;;;10.77;;
4278;SDS011;2153;47.744;10.580;2024-01-11T04:28:44;32.13;;;11.20;;
4278;SDS011;2153;47.744;10.580;2024-01-11T04:31:12;35.27;;;12.10;;
4278;SDS011;2153;47.744;10.580;2024-01-11T04:33:40;29.73;;;12.30;;
4278;SDS011;2153;47.744;10.580;2024-01-11T04:36:07;38.27;;;11.93;;
4278;SDS011;2153;47.744;10.580;2024-01-11T04:38:34;34.00;;;11.70;;
4278;SDS011;2153;47.744;10.580;2024-01-11T04:41:00;30.07;;;11.60;;
4278;SDS011;2153;47.744;10.580;2024-01-11T04:43:28;30.20;;;11.63;;
4278;SDS011;2153;47.744;10.580;2024-01-11T04:45:55;35.53;;;10.90;;
4278;SDS011;2153;47.744;10.580;2024-01-11T04:48:22;67.17;;;12.70;;
4278;SDS011;2153;47.744;10.580;2024-01-11T04:50:48;40.17;;;12.67;;
4278;SDS011;2153;47.744;10.580;2024-01-11T04:53:15;32.33;;;11.20;;
4278;SDS011;2153;47.744;10.580;2024-01-11T04:55:41;28.27;;;10.37;;
4278;SDS011;2153;47.744;10.580;2024-01-11T04:58:08;27.60;;;11.03;;
4278;SDS011;2153;47.744;10.580;2024-01-11T05:00:36;41.53;;;10.90;;
4278;SDS011;2153;47.744;10.580;2024-01-11T05:03:03;27.80;;;10.20;;
4278;SDS011;2153;47.744;10.580;2024-01-11T05:05:30;29.63;;;11.13;;
4278;SDS011;2153;47.744;10.580;2024-01-11T05:07:56;28.63;;;12.00;;
4278;SDS011;2153;47.744;10.580;2024-01-11T05:10:23;39.97;;;9.37;;
4278;SDS011;2153;47.744;10.580;2024-01-11T05:12:50;30.43;;;11.00;;
4278;SDS011;2153;47.744;10.580;2024-01-11T05:15:16;32.37;;;10.40;;
4278;SDS011;2153;47.744;10.580;2024-01-11T05:17:44;35.47;;;14.00;;
4278;SDS011;2153;47.744;10.580;2024-01-11T05:20:11;29.90;;;11.17;;
4278;SDS011;2153;47.744;10.580;2024-01-11T05:22:38;26.57;;;10.30;;
4278;SDS011;2153;47.744;10.580;2024-01-11T05:25:05;24.33;;;9.53;;
4278;SDS011;2153;47.744;10.580;2024-01-11T05:27:31;31.27;;;10.87;;
4278;SDS011;2153;47.744;10.580;2024-01-11T05:29:58;30.60;;;9.87;;
4278;SDS011;2153;47.744;10.580;2024-01-11T05:32:25;30.77;;;10.67;;
4278;SDS011;2153;47.744;10.580;2024-01-11T05:34:53;34.63;;;10.37;;
4278;SDS011;2153;47.744;10.580;2024-01-11T05:37:19;27.13;;;10.60;;
4278;SDS011;2153;47.744;10.580;2024-01-11T05:39:46;34.07;;;11.87;;
4278;SDS011;2153;47.744;10.580;2024-01-11T05:42:13;36.30;;;10.30;;
4278;SDS011;2153;47.744;10.580;2024-01-11T05:44:40;23.80;;;9.80;;
4278;SDS011;2153;47.744;10.580;2024-01-11T05:47:06;25.20;;;10.37;;
4278;SDS011;2153;47.744;10.580;2024-01-11T05:49:33;34.47;;;10.77;;
4278;SDS011;2153;47.744;10.580;2024-01-11T05:52:01;27.90;;;10.63;;
4278;SDS011;2153;47.744;10.580;2024-01-11T05:54:27;32.80;;;11.87;;
4278;SDS011;2153;47.744;10.580;2024-01-11T05:56:54;30.03;;;11.80;;
4278;SDS011;2153;47.744;10.580;2024-01-11T05:59:23;33.50;;;10.37;;
4278;SDS011;2153;47.744;10.580;2024-01-11T06:01:49;40.73;;;12.00;;
4278;SDS011;2153;47.744;10.580;2024-01-11T06:04:16;36.27;;;12.63;;
4278;SDS011;2153;47.744;10.580;2024-01-11T06:06:43;36.17;;;10.10;;
4278;SDS011;2153;47.744;10.580;2024-01-11T06:09:11;66.73;;;11.73;;
4278;SDS011;2153;47.744;10.580;2024-01-11T06:11:37;27.97;;;9.80;;
4278;SDS011;2153;47.744;10.580;2024-01-11T06:14:05;65.10;;;13.63;;
4278;SDS011;2153;47.744;10.580;2024-01-11T06:16:31;49.13;;;12.93;;
4278;SDS011;2153;47.744;10.580;2024-01-11T06:18:58;80.83;;;15.63;;
4278;SDS011;2153;47.744;10.580;2024-01-11T06:21:24;95.37;;;21.30;;
4278;SDS011;2153;47.744;10.580;2024-01-11T06:23:51;116.00;;;22.97;;
4278;SDS011;2153;47.744;10.580;2024-01-11T06:26:19;78.23;;;24.73;;
4278;SDS011;2153;47.744;10.580;2024-01-11T06:28:46;226.83;;;24.70;;
4278;SDS011;2153;47.744;10.580;2024-01-11T06:31:12;195.33;;;26.70;;
4278;SDS011;2153;47.744;10.580;2024-01-11T06:33:39;77.47;;;22.33;;
4278;SDS011;2153;47.744;10.580;2024-01-11T06:36:06;216.63;;;30.27;;
4278;SDS011;2153;47.744;10.580;2024-01-11T06:38:33;146.97;;;30.27;;
4278;SDS011;2153;47.744;10.580;2024-01-11T06:41:00;186.93;;;28.90;;
4278;SDS011;2153;47.744;10.580;2024-01-11T06:43:27;103.93;;;24.90;;
4278;SDS011;2153;47.744;10.580;2024-01-11T06:45:54;74.93;;;22.33;;
4278;SDS011;2153;47.744;10.580;2024-01-11T06:48:21;130.40;;;27.33;;
4278;SDS011;2153;47.744;10.580;2024-01-11T06:50:48;135.80;;;29.77;;
4278;SDS011;2153;47.744;10.580;2024-01-11T06:53:14;101.87;;;28.37;;
4278;SDS011;2153;47.744;10.580;2024-01-11T06:55:41;102.20;;;29.70;;
4278;SDS011;2153;47.744;10.580;2024-01-11T06:58:08;106.50;;;30.30;;
4278;SDS011;2153;47.744;10.580;2024-01-11T07:00:37;91.07;;;30.80;;
4278;SDS011;2153;47.744;10.580;2024-01-11T07:03:08;105.97;;;28.47;;
4278;SDS011;2153;47.744;10.580;2024-01-11T07:05:34;92.47;;;28.70;;
4278;SDS011;2153;47.744;10.580;2024-01-11T07:08:01;151.70;;;29.23;;
4278;SDS011;2153;47.744;10.580;2024-01-11T07:10:28;105.73;;;29.17;;
4278;SDS011;2153;47.744;10.580;2024-01-11T07:12:54;204.13;;;31.53;;
4278;SDS011;2153;47.744;10.580;2024-01-11T07:15:21;157.10;;;27.90;;
4278;SDS011;2153;47.744;10.580;2024-01-11T07:17:50;141.47;;;29.40;;
4278;SDS011;2153;47.744;10.580;2024-01-11T07:20:18;136.27;;;27.47;;
4278;SDS011;2153;47.744;10.580;2024-01-11T07:22:45;95.17;;;29.30;;
4278;SDS011;2153;47.744;10.580;2024-01-11T07:25:11;121.00;;;29.17;;
4278;SDS011;2153;47.744;10.580;2024-01-11T07:27:39;153.23;;;27.67;;
4278;SDS011;2153;47.744;10.580;2024-01-11T07:30:06;128.00;;;27.50;;
4278;SDS011;2153;47.744;10.580;2024-01-11T07:32:33;84.93;;;25.73;;
4278;SDS011;2153;47.744;10.580;2024-01-11T07:35:02;75.10;;;24.53;;
4278;SDS011;2153;47.744;10.580;2024-01-11T07:37:29;72.90;;;24.77;;
4278;SDS011;2153;47.744;10.580;2024-01-11T07:39:55;91.73;;;24.60;;
4278;SDS011;2153;47.744;10.580;2024-01-11T07:42:22;102.13;;;25.57;;
4278;SDS011;2153;47.744;10.580;2024-01-11T07:44:49;78.07;;;24.90;;
4278;SDS011;2153;47.744;10.580;2024-01-11T07:47:15;73.60;;;22.60;;
4278;SDS011;2153;47.744;10.580;2024-01-11T07:49:42;82.00;;;24.50;;
4278;SDS011;2153;47.744;10.580;2024-01-11T07:52:10;79.73;;;24.17;;
4278;SDS011;2153;47.744;10.580;2024-01-11T07:54:37;58.93;;;22.00;;
4278;SDS011;2153;47.744;10.580;2024-01-11T07:57:03;82.93;;;22.77;;
4278;SDS011;2153;47.744;10.580;2024-01-11T07:59:32;121.37;;;25.40;;
4278;SDS011;2153;47.744;10.580;2024-01-11T08:02:00;81.17;;;23.07;;
4278;SDS011;2153;47.744;10.580;2024-01-11T08:04:27;69.13;;;22.03;;
4278;SDS011;2153;47.744;10.580;2024-01-11T08:06:54;86.93;;;23.40;;
4278;SDS011;2153;47.744;10.580;2024-01-11T08:09:22;74.30;;;23.20;;
4278;SDS011;2153;47.744;10.580;2024-01-11T08:11:49;59.07;;;21.80;;
4278;SDS011;2153;47.744;10.580;2024-01-11T08:14:17;52.90;;;18.97;;
4278;SDS011;2153;47.744;10.580;2024-01-11T08:16:44;51.37;;;18.47;;
4278;SDS011;2153;47.744;10.580;2024-01-11T08:19:10;61.13;;;21.20;;
4278;SDS011;2153;47.744;10.580;2024-01-11T08:21:38;62.80;;;21.63;;
4278;SDS011;2153;47.744;10.580;2024-01-11T08:24:06;66.60;;;18.53;;
4278;SDS011;2153;47.744;10.580;2024-01-11T08:26:34;63.70;;;18.13;;
4278;SDS011;2153;47.744;10.580;2024-01-11T08:29:01;53.73;;;18.40;;
4278;SDS011;2153;47.744;10.580;2024-01-11T08:31:29;62.30;;;20.07;;
4278;SDS011;2153;47.744;10.580;2024-01-11T08:33:57;63.80;;;17.57;;
4278;SDS011;2153;47.744;10.580;2024-01-11T08:36:24;105.27;;;18.37;;
4278;SDS011;2153;47.744;10.580;2024-01-11T08:38:56;54.97;;;17.80;;
4278;SDS011;2153;47.744;10.580;2024-01-11T08:41:22;169.30;;;22.90;;
4278;SDS011;2153;47.744;10.580;2024-01-11T08:43:50;109.23;;;19.67;;
4278;SDS011;2153;47.744;10.580;2024-01-11T08:46:23;103.70;;;21.53;;
4278;SDS011;2153;47.744;10.580;2024-01-11T08:48:50;166.37;;;21.97;;
4278;SDS011;2153;47.744;10.580;2024-01-11T08:51:17;153.43;;;21.50;;
4278;SDS011;2153;47.744;10.580;2024-01-11T08:53:43;162.67;;;24.20;;
4278;SDS011;2153;47.744;10.580;2024-01-11T08:56:10;137.67;;;20.97;;
4278;SDS011;2153;47.744;10.580;2024-01-11T08:58:37;146.40;;;21.67;;
4278;SDS011;2153;47.744;10.580;2024-01-11T09:01:06;69.63;;;19.57;;
4278;SDS011;2153;47.744;10.580;2024-01-11T09:03:34;80.63;;;20.67;;
4278;SDS011;2153;47.744;10.580;2024-01-11T09:06:01;69.27;;;21.30;;
4278;SDS011;2153;47.744;10.580;2024-01-11T09:08:28;60.30;;;19.27;;
4278;SDS011;2153;47.744;10.580;2024-01-11T09:10:54;64.00;;;18.27;;
4278;SDS011;2153;47.744;10.580;2024-01-11T09:13:23;69.87;;;19.23;;
4278;SDS011;2153;47.744;10.580;2024-01-11T09:15:51;73.57;;;20.27;;
4278;SDS011;2153;47.744;10.580;2024-01-11T09:18:19;65.43;;;18.43;;
4278;SDS011;2153;47.744;10.580;2024-01-11T09:20:45;94.07;;;20.33;;
4278;SDS011;2153;47.744;10.580;2024-01-11T09:23:13;79.93;;;17.80;;
4278;SDS011;2153;47.744;10.580;2024-01-11T09:25:40;90.37;;;17.03;;
4278;SDS011;2153;47.744;10.580;2024-01-11T09:28:07;98.03;;;15.40;;
4278;SDS011;2153;47.744;10.580;2024-01-11T09:30:33;37.80;;;14.80;;
4278;SDS011;2153;47.744;10.580;2024-01-11T09:33:00;37.67;;;12.10;;
4278;SDS011;2153;47.744;10.580;2024-01-11T09:35:28;39.57;;;13.80;;
4278;SDS011;2153;47.744;10.580;2024-01-11T09:37:55;36.50;;;12.67;;
4278;SDS011;2153;47.744;10.580;2024-01-11T09:40:22;39.10;;;12.97;;
4278;SDS011;2153;47.744;10.580;2024-01-11T09:42:48;35.57;;;14.50;;
4278;SDS011;2153;47.744;10.580;2024-01-11T09:45:15;35.57;;;12.60;;
4278;SDS011;2153;47.744;10.580;2024-01-11T09:47:43;35.07;;;13.33;;
4278;SDS011;2153;47.744;10.580;2024-01-11T09:50:11;31.67;;;12.23;;
4278;SDS011;2153;47.744;10.580;2024-01-11T09:52:44;42.53;;;14.20;;
4278;SDS011;2153;47.744;10.580;2024-01-11T09:55:12;34.47;;;12.43;;
4278;SDS011;2153;47.744;10.580;2024-01-11T09:57:41;29.40;;;10.90;;
4278;SDS011;2153;47.744;10.580;2024-01-11T10:00:16;29.40;;;10.27;;
4278;SDS011;2153;47.744;10.580;2024-01-11T10:02:44;28.07;;;9.93;;
4278;SDS011;2153;47.744;10.580;2024-01-11T10:05:11;29.67;;;10.80;;
4278;SDS011;2153;47.744;10.580;2024-01-11T10:07:39;30.13;;;11.40;;
4278;SDS011;2153;47.744;10.580;2024-01-11T10:10:08;23.50;;;9.30;;
4278;SDS011;2153;47.744;10.580;2024-01-11T10:12:35;28.73;;;9.63;;
4278;SDS011;2153;47.744;10.580;2024-01-11T10:15:04;32.10;;;10.80;;
4278;SDS011;2153;47.744;10.580;2024-01-11T10:17:34;47.63;;;11.40;;
4278;SDS011;2153;47.744;10.580;2024-01-11T10:20:01;25.70;;;9.93;;
4278;SDS011;2153;47.744;10.580;2024-01-11T10:22:28;37.43;;;10.77;;
4278;SDS011;2153;47.744;10.580;2024-01-11T10:25:08;26.83;;;10.77;;
4278;SDS011;2153;47.744;10.580;2024-01-11T10:27:36;32.03;;;10.87;;
4278;SDS011;2153;47.744;10.580;2024-01-11T10:30:03;37.10;;;12.03;;
4278;SDS011;2153;47.744;10.580;2024-01-11T10:32:32;77.93;;;13.53;;
4278;SDS011;2153;47.744;10.580;2024-01-11T10:34:59;34.37;;;11.47;;
4278;SDS011;2153;47.744;10.580;2024-01-11T10:37:28;38.43;;;11.73;;
4278;SDS011;2153;47.744;10.580;2024-01-11T10:39:56;35.37;;;11.27;;
4278;SDS011;2153;47.744;10.580;2024-01-11T10:42:25;35.40;;;10.63;;
4278;SDS011;2153;47.744;10.580;2024-01-11T10:44:57;73.50;;;10.53;;
4278;SDS011;2153;47.744;10.580;2024-01-11T10:47:30;38.77;;;12.30;;
4278;SDS011;2153;47.744;10.580;2024-01-11T10:49:57;42.80;;;10.63;;
4278;SDS011;2153;47.744;10.580;2024-01-11T10:52:27;38.87;;;11.93;;
4278;SDS011;2153;47.744;10.580;2024-01-11T10:54:58;45.07;;;11.80;;
4278;SDS011;2153;47.744;10.580;2024-01-11T10:57:27;36.27;;;13.10;;
4278;SDS011;2153;47.744;10.580;2024-01-11T10:59:56;35.20;;;11.50;;
4278;SDS011;2153;47.744;10.580;2024-01-11T11:02:27;31.17;;;10.77;;
4278;SDS011;2153;47.744;10.580;2024-01-11T11:04:55;31.73;;;12.17;;
4278;SDS011;2153;47.744;10.580;2024-01-11T11:07:22;31.60;;;11.93;;
4278;SDS011;2153;47.744;10.580;2024-01-11T11:09:52;31.57;;;12.77;;
4278;SDS011;2153;47.744;10.580;2024-01-11T11:12:19;30.57;;;12.23;;
4278;SDS011;2153;47.744;10.580;2024-01-11T11:14:49;29.87;;;9.83;;
4278;SDS011;2153;47.744;10.580;2024-01-11T11:17:17;24.90;;;10.17;;
4278;SDS011;2153;47.744;10.580;2024-01-11T11:19:44;23.83;;;8.60;;
4278;SDS011;2153;47.744;10.580;2024-01-11T11:22:12;22.53;;;8.57;;
4278;SDS011;2153;47.744;10.580;2024-01-11T11:24:40;22.73;;;8.47;;
4278;SDS011;2153;47.744;10.580;2024-01-11T11:27:07;21.17;;;8.63;;
4278;SDS011;2153;47.744;10.580;2024-01-11T11:29:33;27.23;;;9.67;;
4278;SDS011;2153;47.744;10.580;2024-01-11T11:32:01;23.07;;;9.50;;
4278;SDS011;2153;47.744;10.580;2024-01-11T11:34:42;21.93;;;8.37;;
4278;SDS011;2153;47.744;10.580;2024-01-11T11:37:10;23.53;;;8.67;;
4278;SDS011;2153;47.744;10.580;2024-01-11T11:39:37;21.20;;;7.47;;
4278;SDS011;2153;47.744;10.580;2024-01-11T11:42:04;21.67;;;7.70;;
4278;SDS011;2153;47.744;10.580;2024-01-11T11:44:31;20.63;;;7.93;;
4278;SDS011;2153;47.744;10.580;2024-01-11T11:50:02;22.47;;;8.00;;
4278;SDS011;2153;47.744;10.580;2024-01-11T11:52:30;19.90;;;8.20;;
4278;SDS011;2153;47.744;10.580;2024-01-11T11:54:59;23.90;;;8.30;;
4278;SDS011;2153;47.744;10.580;2024-01-11T11:57:26;22.87;;;7.90;;
4278;SDS011;2153;47.744;10.580;2024-01-11T11:59:53;22.60;;;7.33;;
4278;SDS011;2153;47.744;10.580;2024-01-11T12:02:24;21.67;;;8.07;;
4278;SDS011;2153;47.744;10.580;2024-01-11T12:04:52;22.60;;;7.77;;
4278;SDS011;2153;47.744;10.580;2024-01-11T12:07:19;23.33;;;8.50;;
4278;SDS011;2153;47.744;10.580;2024-01-11T12:09:46;19.90;;;7.17;;
4278;SDS011;2153;47.744;10.580;2024-01-11T12:12:13;24.00;;;8.30;;
4278;SDS011;2153;47.744;10.580;2024-01-11T12:14:40;25.07;;;10.20;;
4278;SDS011;2153;47.744;10.580;2024-01-11T12:17:07;22.60;;;8.67;;
4278;SDS011;2153;47.744;10.580;2024-01-11T12:19:36;21.50;;;7.60;;
4278;SDS011;2153;47.744;10.580;2024-01-11T12:22:02;23.57;;;9.47;;
4278;SDS011;2153;47.744;10.580;2024-01-11T12:24:29;26.10;;;9.57;;
4278;SDS011;2153;47.744;10.580;2024-01-11T12:26:58;31.33;;;11.40;;
4278;SDS011;2153;47.744;10.580;2024-01-11T12:29:25;31.37;;;11.57;;
4278;SDS011;2153;47.744;10.580;2024-01-11T12:31:54;30.37;;;11.07;;
4278;SDS011;2153;47.744;10.580;2024-01-11T12:34:22;25.47;;;10.43;;
4278;SDS011;2153;47.744;10.580;2024-01-11T12:36:51;30.70;;;10.67;;
4278;SDS011;2153;47.744;10.580;2024-01-11T12:39:20;32.17;;;11.00;;
4278;SDS011;2153;47.744;10.580;2024-01-11T12:41:48;31.50;;;11.17;;
4278;SDS011;2153;47.744;10.580;2024-01-11T12:44:16;27.47;;;9.53;;
4278;SDS011;2153;47.744;10.580;2024-01-11T12:46:44;28.70;;;10.70;;
4278;SDS011;2153;47.744;10.580;2024-01-11T12:49:10;26.77;;;9.40;;
4278;SDS011;2153;47.744;10.580;2024-01-11T12:51:37;35.17;;;11.40;;
4278;SDS011;2153;47.744;10.580;2024-01-11T12:54:06;33.93;;;13.40;;
4278;SDS011;2153;47.744;10.580;2024-01-11T12:56:40;50.07;;;23.40;;
4278;SDS011;2153;47.744;10.580;2024-01-11T12:59:07;42.40;;;17.20;;
4278;SDS011;2153;47.744;10.580;2024-01-11T13:01:34;37.87;;;13.10;;
4278;SDS011;2153;47.744;10.580;2024-01-11T13:04:01;38.47;;;13.20;;
4278;SDS011;2153;47.744;10.580;2024-01-11T13:06:28;40.50;;;12.60;;
4278;SDS011;2153;47.744;10.580;2024-01-11T13:08:56;34.40;;;12.40;;
4278;SDS011;2153;47.744;10.580;2024-01-11T13:11:24;94.13;;;43.40;;
4278;SDS011;2153;47.744;10.580;2024-01-11T13:13:51;52.03;;;14.43;;
4278;SDS011;2153;47.744;10.580;2024-01-11T13:16:18;36.70;;;13.10;;
4278;SDS011;2153;47.744;10.580;2024-01-11T13:18:44;35.80;;;13.67;;
4278;SDS011;2153;47.744;10.580;2024-01-11T13:21:11;46.27;;;18.93;;
4278;SDS011;2153;47.744;10.580;2024-01-11T13:23:38;57.27;;;26.13;;
4278;SDS011;2153;47.744;10.580;2024-01-11T13:26:05;159.93;;;78.67;;
4278;SDS011;2153;47.744;10.580;2024-01-11T13:28:33;74.83;;;29.53;;
4278;SDS011;2153;47.744;10.580;2024-01-11T13:31:01;134.90;;;56.00;;
4278;SDS011;2153;47.744;10.580;2024-01-11T13:33:28;53.20;;;22.13;;
4278;SDS011;2153;47.744;10.580;2024-01-11T13:35:54;39.47;;;14.90;;
4278;SDS011;2153;47.744;10.580;2024-01-11T13:38:21;40.57;;;14.50;;
4278;SDS011;2153;47.744;10.580;2024-01-11T13:40:48;69.93;;;30.10;;
4278;SDS011;2153;47.744;10.580;2024-01-11T13:43:14;89.03;;;52.07;;
4278;SDS011;2153;47.744;10.580;2024-01-11T13:45:43;34.93;;;13.60;;
4278;SDS011;2153;47.744;10.580;2024-01-11T13:48:10;39.67;;;14.90;;
4278;SDS011;2153;47.744;10.580;2024-01-11T13:50:37;166.17;;;87.63;;
4278;SDS011;2153;47.744;10.580;2024-01-11T13:53:03;54.70;;;27.40;;
4278;SDS011;2153;47.744;10.580;2024-01-11T13:55:31;47.03;;;22.03;;
4278;SDS011;2153;47.744;10.580;2024-01-11T13:58:02;64.60;;;34.53;;
4278;SDS011;2153;47.744;10.580;2024-01-11T14:00:29;48.83;;;22.60;;
4278;SDS011;2153;47.744;10.580;2024-01-11T14:02:57;42.33;;;16.60;;
4278;SDS011;2153;47.744;10.580;2024-01-11T14:05:24;61.03;;;29.40;;
4278;SDS011;2153;47.744;10.580;2024-01-11T14:07:50;39.40;;;13.40;;
4278;SDS011;2153;47.744;10.580;2024-01-11T14:10:22;106.73;;;59.57;;
4278;SDS011;2153;47.744;10.580;2024-01-11T14:12:49;32.77;;;12.73;;
4278;SDS011;2153;47.744;10.580;2024-01-11T14:15:16;42.47;;;19.10;;
4278;SDS011;2153;47.744;10.580;2024-01-11T14:17:42;38.43;;;15.40;;
4278;SDS011;2153;47.744;10.580;2024-01-11T14:20:11;34.53;;;11.40;;
4278;SDS011;2153;47.744;10.580;2024-01-11T14:22:39;29.67;;;11.33;;
4278;SDS011;2153;47.744;10.580;2024-01-11T14:25:07;35.20;;;12.03;;
4278;SDS011;2153;47.744;10.580;2024-01-11T14:27:34;34.60;;;13.07;;
4278;SDS011;2153;47.744;10.580;2024-01-11T14:30:00;39.90;;;16.47;;
4278;SDS011;2153;47.744;10.580;2024-01-11T14:32:30;30.33;;;11.27;;
4278;SDS011;2153;47.744;10.580;2024-01-11T14:34:56;48.00;;;23.53;;
4278;SDS011;2153;47.744;10.580;2024-01-11T14:37:29;32.33;;;11.90;;
4278;SDS011;2153;47.744;10.580;2024-01-11T14:39:56;36.63;;;12.67;;